Portada
METAR-TAF:

METAR-TAF

Aeroports :

Aeroport de Madrid-Barajas

Madrid, Espanya

latitud: 40-27N, longitud: 003-33W, altitud: 609 m

Observació

L'informe es va fer fa 26 minuts, a les 03:30 UTC
Vent 5 kt del Nord-Oest
Temperatura 14°C
Humitat 94%
Pressió 1018 hPa
Visibilitat 10 km o més
Núvols disperses a una alçada de 3500 ft
Cel ennuvolat a una alçada de 6000 ft

METAR: LEMD 200330Z 31005KT 9999 SCT035 BKN060 14/13 Q1018 R88/29//95 NOSIG

Hora: 05:56 (03:56 UTC)

Pronòstic

L'informe es va fer fa 4 hores i 56 minuts, a les 23:00 UTC
Pronòstic vàlid del 20 a les 00 UTC al 21 a les 06 UTC
Vent 8 kt del Nord/Nord-Est
Visibilitat 10 km o més
Cel ennuvolat a una alçada de 6000 ft

TAF: LEMD 192300Z 2000/2106 02008KT 9999 BKN060 TX21/2015Z TN12/2006Z

Observacions i pronòstics meteorològics de més de 4000 aeroports (METAR i TAF).

Les estacions disponibles són els punts grocs i vermells al mapa.

Posi el ratolí al punt desitjat per veure el nom de l'estació.

Feu clic per veure les observacions i els pronòstics meteorològics.

Per canviar el mapa: feu clic els botons verds amb una creu de color negre per apropar; al botó verd amb un guió per allunyar la imatge; o en les fletxes verdes per a mapes adjacents.


METAR-TAF: